KMCWKCMX

Guest
Details From KMCW - Mason City Muni
To KCMX - Houghton Co Mem
Flight Number -
Tags Generated
Created
Modified
Stats Distance 316 nm / 585 km
Max Altitude 0 ft / 0 m
Waypoints 3
Social Downloads 0
Likes 0
Share VATSIM

Download

Looking for another format? Having issues loading an existing format? Contact us
Advertisement - Login to hide

Notes

Generated

Route

KMCW R2422 KCMX

ID Type Via Altitude Latitude Longitude Leg Dist Tot Dist Heading (true) Name
O KMCW APT - 0 ft / 0 m 43.15984˚ -93.34391˚ - 0 nm - -
R2422 FIX - 0 ft / 0 m 47.16428˚ -88.49876˚ 315 nm 315 nm 39° / 42° -
O KCMX APT - 0 ft / 0 m 47.16428˚ -88.49876˚ 0 nm 315 nm 0° / 180° -

Altitude Profile

Advertisement - Login to hide

Weather


0- 5 10 15 20 25 30 35+ Temperature / ° C

Clouds and Precipitation
Forecast for 2018-05-20 18:00 UTC. Updated an hour ago

Ground ~20,000 ft ~40,000 ft Winds

KMCW

Details ICAO KMCW (MCW)
Name MASON CITY MUNI
Region United States
Timezone America/Chicago (UTC-5.0)
Stats Elevation 1,213 ft / 370 m (AMSL)
Location 43.157618° -93.331577°
Runways 2
Magnetic Variation 0.412° E

METAR

KMCW 201753Z AUTO 07013KT 10SM OVC011 12/09 A3020 RMK AO2 SLP224 T01220089 10128 20094 50002

Decode

TAF

KMCW 201722Z 2018/2118 07009KT P6SM OVC013 FM210600 07005KT P6SM VCSH OVC024 FM210900 09005KT P6SM VCSH OVC007 FM211200 08006KT P6SM OVC009

Decode

Departure Runways

ID Width Length Bearing (true) Bearing (mag) Surface Threshold Offset Overrun Length
12 150 ft / 46 m 5,495 ft / 1,675 m 125.03° 124.62° Asphalt 0 ft / 0 m 0 ft / 0 m
18 150 ft / 46 m 6,507 ft / 1,984 m 179.92° 179.51° Asphalt 0 ft / 0 m 0 ft / 0 m
30 150 ft / 46 m 5,495 ft / 1,675 m 305.04° 304.63° Asphalt 0 ft / 0 m 0 ft / 0 m
36 150 ft / 46 m 6,507 ft / 1,984 m 359.92° 359.51° Asphalt 0 ft / 0 m 0 ft / 0 m

KCMX

Details ICAO KCMX (CMX)
Name HOUGHTON CO MEM
Region United States
Timezone America/Detroit (UTC-4.0)
Stats Elevation 1,095 ft / 334 m (AMSL)
Location 47.168283° -88.489071°
Runways 2
Magnetic Variation 4.217° W

METAR

KCMX 201753Z AUTO 29009G15KT 10SM CLR 16/01 A3025 RMK AO2 SLP251 T01560006 10156 20050 58003

Decode

TAF

KCMX 201722Z 2018/2118 27008KT P6SM SKC FM210200 29004KT P6SM SKC FM211600 18003KT P6SM SKC

Decode

Destination Runways

ID Width Length Bearing (true) Bearing (mag) Surface Threshold Offset Overrun Length
07 100 ft / 30 m 5,185 ft / 1,580 m 66.80° 71.02° Asphalt 0 ft / 0 m 0 ft / 0 m
13 150 ft / 46 m 6,492 ft / 1,979 m 130.94° 135.16° Asphalt 0 ft / 0 m 0 ft / 0 m
25 100 ft / 30 m 5,185 ft / 1,580 m 246.82° 251.04° Asphalt 0 ft / 0 m 0 ft / 0 m
31 150 ft / 46 m 6,492 ft / 1,979 m 310.95° 315.17° Asphalt 0 ft / 0 m 0 ft / 0 m

Approach Navaids

Runway Type Ident Frequency Range Bearing (true) Bearing (mag) Slope Elevation
31 Localiser ICMX 110.30 MHz 18 nm / 33 km 310.95° 315.17° - 1,095 ft / 334 m (AMSL)
31 Glidescope ICMX 110.30 MHz 10 nm / 19 km 310.94° 315.16° 3.00° 1,065 ft / 325 m (AMSL)